Time;durP1;ratioP1;P1;durP2;ratioP2;P2;SDS_P1;SDS_P2;PMS_P1;PMS_P2;Temp;Humidity;BMP_temperature;BMP_pressure;BME280_temperature;BME280_humidity;BME280_pressure;Samples;Min_cycle;Max_cycle;Signal;HPM_P1;HPM_P2
2022/03/04 00:00:04;;;;;;;;;;;9.20;99.90;9.70;99267.00;;;;347130;28;95596;-85
2022/03/04 00:00:16;;;;;;;;;;;9.20;99.90;9.60;99275.00;;;;346956;28;92102;-85
2022/03/04 00:00:27;;;;;;;;;;;9.20;99.90;9.60;99272.00;;;;344304;28;93785;-85
2022/03/04 00:00:40;;;;;;;;;;;9.20;99.90;9.60;99273.00;;;;344171;28;91795;-85
2022/03/04 00:00:52;;;;;;;;;;;9.20;99.90;9.70;99267.00;;;;345853;28;96358;-85
2022/03/04 00:01:04;;;;;;;;;;;9.20;99.90;9.70;99268.00;;;;346867;27;92052;-85
2022/03/04 00:01:16;;;;;;;;;;;9.10;99.90;9.70;99258.00;;;;346854;28;92099;-85
2022/03/04 00:01:29;;;;;;;;;;;9.20;99.90;9.60;99274.00;;;;348073;27;91229;-85
2022/03/04 00:01:41;;;;;;;;;;;9.20;99.90;9.60;99266.00;;;;347878;27;92508;-85
2022/03/04 00:01:53;;;;;;;;;;;9.20;99.90;9.60;99274.00;;;;345621;28;92003;-85
2022/03/04 00:02:05;;;;;;;;;;;9.10;99.90;9.70;99270.00;;;;345928;28;91837;-85
2022/03/04 00:02:17;;;;;;;;;;;9.10;99.90;9.70;99269.00;;;;346837;28;92122;-85
2022/03/04 00:02:29;;;;;;;;;;;9.10;99.90;9.60;99269.00;;;;348604;27;96724;-85
2022/03/04 00:02:41;;;;;;;;;;;9.10;99.90;9.70;99268.00;;;;346995;28;92089;-86
2022/03/04 00:02:54;;;;;;;;;;;9.10;99.90;9.60;99273.00;;;;344522;28;93772;-85
2022/03/04 00:03:06;;;;;;;;;;;9.10;99.90;9.60;99262.00;;;;344284;28;91977;-85
2022/03/04 00:03:19;;;;;;;;;;;9.10;99.90;9.60;99281.00;;;;347219;28;96677;-85
2022/03/04 00:03:31;;;;;;;;;;;9.10;99.90;9.70;99270.00;;;;347112;28;91185;-85
2022/03/04 00:03:42;;;;;;;;;;;9.10;99.90;9.80;99266.00;;;;345786;28;95977;-85
2022/03/04 00:03:54;;;;;;;;;;;9.10;99.90;9.70;99267.00;;;;346839;28;91979;-85
2022/03/04 00:04:07;;;;;;;;;;;9.10;99.90;9.70;99265.00;;;;348186;27;94779;-85
2022/03/04 00:04:20;;;;;;;;;;;9.10;99.90;9.70;99272.00;;;;346755;27;92131;-85
2022/03/04 00:04:37;;;;;;;;;;;9.10;99.90;9.60;99268.00;;;;348683;27;94625;-85
2022/03/04 00:04:48;;;;;;;;;;;9.10;99.90;9.60;99272.00;;;;347045;28;91043;-85
2022/03/04 00:05:00;;;;;;;;;;;9.10;99.90;9.60;99277.00;;;;345849;28;93525;-85
2022/03/04 00:05:12;;;;;;;;;;;9.10;99.90;9.50;99273.00;;;;346038;28;92003;-85
2022/03/04 00:05:24;;;;;;;;;;;9.10;99.90;9.50;99273.00;;;;347295;28;94087;-85
2022/03/04 00:05:36;;;;;;;;;;;9.10;99.90;9.50;99271.00;;;;345618;28;91205;-85
2022/03/04 00:05:48;;;;;;;;;;;9.10;99.90;9.60;99272.00;;;;345860;28;93937;-85
2022/03/04 00:05:59;;;;;;;;;;;9.10;99.90;9.70;99269.00;;;;348442;27;91952;-85
2022/03/04 00:06:12;;;;;;;;;;;9.10;99.90;9.60;99264.00;;;;345926;28;95052;-85
2022/03/04 00:06:24;;;;;;;;;;;9.10;99.90;9.60;99274.00;;;;346937;27;92071;-85
2022/03/04 00:06:35;;;;;;;;;;;9.10;99.90;9.70;99273.00;;;;348662;27;96117;-85
2022/03/04 00:06:47;;;;;;;;;;;9.10;99.90;9.70;99271.00;;;;348485;27;91971;-85
2022/03/04 00:06:59;;;;;;;;;;;9.10;99.90;9.80;99269.00;;;;347141;28;93396;-85
2022/03/04 00:07:11;;;;;;;;;;;9.10;99.90;9.80;99274.00;;;;346128;28;95110;-85
2022/03/04 00:07:22;;;;;;;;;;;9.10;99.90;9.80;99270.00;;;;344440;28;95807;-85
2022/03/04 00:07:34;;;;;;;;;;;9.10;99.90;9.70;99273.00;;;;345643;28;91233;-85
2022/03/04 00:07:46;;;;;;;;;;;9.10;99.90;9.70;99268.00;;;;344377;28;93967;-85
2022/03/04 00:07:58;;;;;;;;;;;9.10;99.90;9.70;99267.00;;;;344298;28;92038;-85
2022/03/04 00:08:09;;;;;;;;;;;9.10;99.90;9.70;99272.00;;;;346014;28;96592;-85
2022/03/04 00:08:21;;;;;;;;;;;9.10;99.90;9.60;99277.00;;;;346872;28;92222;-85
2022/03/04 00:08:33;;;;;;;;;;;9.10;99.90;9.60;99268.00;;;;345990;28;93240;-85
2022/03/04 00:08:45;;;;;;;;;;;9.10;99.90;9.60;99273.00;;;;344309;28;91840;-85
2022/03/04 00:08:57;;;;;;;;;;;9.10;99.90;9.70;99272.00;;;;345833;28;93796;-85
2022/03/04 00:09:09;;;;;;;;;;;9.10;99.90;9.70;99275.00;;;;345668;28;91919;-85
2022/03/04 00:09:21;;;;;;;;;;;9.10;99.90;9.60;99272.00;;;;347237;28;93929;-85
2022/03/04 00:09:33;;;;;;;;;;;9.10;99.90;9.60;99277.00;;;;345723;28;91131;-85
2022/03/04 00:09:45;;;;;;;;;;;9.10;99.90;9.70;99276.00;;;;345871;28;93488;-85
2022/03/04 00:09:56;;;;;;;;;;;9.10;99.90;9.80;99280.00;;;;348446;27;92076;-85
2022/03/04 00:10:08;;;;;;;;;;;9.10;99.90;9.70;99268.00;;;;347914;27;95488;-85
2022/03/04 00:10:20;;;;;;;;;;;9.10;99.90;9.60;99275.00;;;;345320;28;92112;-85
2022/03/04 00:10:32;;;;;;;;;;;9.10;99.90;9.60;99270.00;;;;345952;28;93360;-85
2022/03/04 00:10:44;;;;;;;;;;;9.10;99.90;9.60;99272.00;;;;344132;28;91312;-85
2022/03/04 00:10:56;;;;;;;;;;;9.10;99.90;9.60;99276.00;;;;344499;28;95901;-85
2022/03/04 00:11:07;;;;;;;;;;;9.10;99.90;9.50;99272.00;;;;343821;28;92088;-85
2022/03/04 00:11:19;;;;;;;;;;;9.10;99.90;9.40;99278.00;;;;342910;28;95473;-85
2022/03/04 00:11:31;;;;;;;;;;;9.10;99.90;9.40;99278.00;;;;342887;28;91204;-85
2022/03/04 00:11:43;;;;;;;;;;;9.10;99.90;9.50;99274.00;;;;345844;28;94387;-85
2022/03/04 00:11:55;;;;;;;;;;;9.00;99.90;9.40;99270.00;;;;345664;28;91836;-85
2022/03/04 00:12:08;;;;;;;;;;;9.00;99.90;9.40;99268.00;;;;345919;28;93575;-85
2022/03/04 00:12:19;;;;;;;;;;;9.10;99.90;9.50;99273.00;;;;344040;28;92006;-85
2022/03/04 00:12:31;;;;;;;;;;;9.10;99.90;9.60;99273.00;;;;345940;28;93629;-85
2022/03/04 00:12:43;;;;;;;;;;;9.10;99.90;9.50;99273.00;;;;345689;28;91854;-85
2022/03/04 00:12:55;;;;;;;;;;;9.10;99.90;9.30;99269.00;;;;345867;28;95062;-85
2022/03/04 00:13:07;;;;;;;;;;;9.10;99.90;9.40;99276.00;;;;345532;28;91962;-85
2022/03/04 00:13:19;;;;;;;;;;;9.10;99.90;9.50;99271.00;;;;346749;28;93114;-85
2022/03/04 00:13:31;;;;;;;;;;;9.00;99.90;9.60;99264.00;;;;345656;28;91260;-85
2022/03/04 00:13:43;;;;;;;;;;;9.00;99.90;9.70;99274.00;;;;345534;28;92996;-85
2022/03/04 00:13:54;;;;;;;;;;;9.10;99.90;9.70;99272.00;;;;346990;28;91904;-85
2022/03/04 00:14:06;;;;;;;;;;;9.00;99.90;9.70;99266.00;;;;347307;28;94676;-85
2022/03/04 00:14:19;;;;;;;;;;;9.00;99.90;9.70;99276.00;;;;345557;28;91999;-85
2022/03/04 00:14:30;;;;;;;;;;;9.10;99.90;9.60;99273.00;;;;345875;28;93765;-85
2022/03/04 00:14:42;;;;;;;;;;;9.10;99.90;9.50;99267.00;;;;345672;28;91933;-85
2022/03/04 00:14:54;;;;;;;;;;;9.00;99.90;9.30;99272.00;;;;345880;28;93549;-85
2022/03/04 00:15:06;;;;;;;;;;;9.00;99.90;9.30;99272.00;;;;345618;28;92101;-85
2022/03/04 00:15:18;;;;;;;;;;;9.00;99.90;9.40;99280.00;;;;345912;28;93530;-85
2022/03/04 00:15:30;;;;;;;;;;;9.00;99.90;9.50;99271.00;;;;348348;27;91385;-85
2022/03/04 00:15:42;;;;;;;;;;;9.00;99.90;9.50;99273.00;;;;348513;27;95777;-85
2022/03/04 00:15:53;;;;;;;;;;;9.00;99.90;9.40;99271.00;;;;348573;27;91775;-85
2022/03/04 00:16:06;;;;;;;;;;;9.00;99.90;9.50;99273.00;;;;344197;28;94964;-85
2022/03/04 00:16:18;;;;;;;;;;;9.00;99.90;9.50;99274.00;;;;343350;28;92004;-85
2022/03/04 00:16:30;;;;;;;;;;;9.00;99.90;9.60;99267.00;;;;343129;28;95772;-85
2022/03/04 00:16:42;;;;;;;;;;;9.00;99.90;9.50;99276.00;;;;345004;28;92056;-85
2022/03/04 00:16:54;;;;;;;;;;;9.00;99.90;9.40;99261.00;;;;345787;28;96201;-85
2022/03/04 00:17:06;;;;;;;;;;;9.00;99.90;9.50;99276.00;;;;345639;28;92102;-85
2022/03/04 00:17:18;;;;;;;;;;;9.00;99.90;9.40;99277.00;;;;344521;28;94697;-85
2022/03/04 00:17:29;;;;;;;;;;;9.00;99.90;9.50;99271.00;;;;344243;28;91396;-85
2022/03/04 00:17:41;;;;;;;;;;;9.00;99.90;9.30;99271.00;;;;344355;28;95580;-85
2022/03/04 00:17:53;;;;;;;;;;;8.90;99.90;9.20;99272.00;;;;344363;28;91817;-85
2022/03/04 00:18:05;;;;;;;;;;;8.90;99.90;9.30;99275.00;;;;345943;28;91981;-85
2022/03/04 00:18:16;;;;;;;;;;;8.90;99.90;9.40;99276.00;;;;342909;28;91849;-84
2022/03/04 00:18:28;;;;;;;;;;;8.90;99.90;9.40;99275.00;;;;344355;28;93418;-85
2022/03/04 00:18:41;;;;;;;;;;;8.90;99.90;9.50;99267.00;;;;344112;28;91908;-85
2022/03/04 00:19:09;;;;;;;;;;;8.90;99.90;9.20;99270.00;;;;347327;28;93827;-85
2022/03/04 00:19:21;;;;;;;;;;;8.90;99.90;9.10;99277.00;;;;346677;28;92003;-85
2022/03/04 00:19:33;;;;;;;;;;;8.90;99.90;9.10;99273.00;;;;348709;27;93788;-85
2022/03/04 00:19:44;;;;;;;;;;;8.90;99.90;9.30;99269.00;;;;347181;27;90614;-85
2022/03/04 00:19:56;;;;;;;;;;;8.90;99.90;9.30;99275.00;;;;345913;28;93063;-85
2022/03/04 00:20:09;;;;;;;;;;;8.90;99.90;9.40;99276.00;;;;344191;28;92094;-85
2022/03/04 00:20:21;;;;;;;;;;;8.90;99.90;9.30;99270.00;;;;345795;28;93744;-85
2022/03/04 00:20:33;;;;;;;;;;;8.90;99.90;9.30;99270.00;;;;345685;28;91140;-84
2022/03/04 00:20:44;;;;;;;;;;;8.90;99.90;9.20;99266.00;;;;344558;28;93092;-85
2022/03/04 00:20:56;;;;;;;;;;;8.80;99.90;9.10;99275.00;;;;344336;28;91084;-85
2022/03/04 00:21:09;;;;;;;;;;;8.80;99.90;8.90;99282.00;;;;345844;28;93682;-85
2022/03/04 00:21:21;;;;;;;;;;;8.80;99.90;8.90;99273.00;;;;344303;28;91954;-85
2022/03/04 00:21:34;;;;;;;;;;;8.80;99.90;9.10;99270.00;;;;344417;28;93511;-85
2022/03/04 00:21:48;;;;;;;;;;;8.80;99.90;9.10;99271.00;;;;345260;28;91280;-85
2022/03/04 00:22:00;;;;;;;;;;;8.80;99.90;9.10;99272.00;;;;345776;28;95109;-85
2022/03/04 00:22:13;;;;;;;;;;;8.80;99.90;9.10;99272.00;;;;344816;28;92115;-85
2022/03/04 00:22:25;;;;;;;;;;;8.80;99.90;9.00;99273.00;;;;345712;28;93603;-84
2022/03/04 00:22:37;;;;;;;;;;;8.70;99.90;8.90;99263.00;;;;344122;28;92046;-84
2022/03/04 00:22:49;;;;;;;;;;;8.70;99.90;8.90;99266.00;;;;344517;28;93934;-85
2022/03/04 00:23:01;;;;;;;;;;;8.70;99.90;9.00;99271.00;;;;344173;28;92050;-84
2022/03/04 00:23:14;;;;;;;;;;;8.70;99.90;9.00;99271.00;;;;344494;28;92733;-85
2022/03/04 00:23:25;;;;;;;;;;;8.70;99.90;9.00;99269.00;;;;345727;28;91906;-85
2022/03/04 00:23:37;;;;;;;;;;;8.70;99.90;9.20;99269.00;;;;345893;28;93726;-84
2022/03/04 00:23:49;;;;;;;;;;;8.70;99.90;9.20;99271.00;;;;345827;28;91192;-85
2022/03/04 00:24:01;;;;;;;;;;;8.70;99.90;9.20;99277.00;;;;345887;28;92427;-85
2022/03/04 00:24:13;;;;;;;;;;;8.70;99.90;9.10;99273.00;;;;345373;28;92086;-85
2022/03/04 00:24:25;;;;;;;;;;;8.70;99.90;9.10;99273.00;;;;344492;28;94141;-85
2022/03/04 00:24:36;;;;;;;;;;;8.70;99.90;9.10;99271.00;;;;345589;28;92006;-85
2022/03/04 00:24:48;;;;;;;;;;;8.70;99.90;9.10;99270.00;;;;345888;28;93410;-85
2022/03/04 00:25:00;;;;;;;;;;;8.70;99.90;9.00;99268.00;;;;345552;28;91998;-85
2022/03/04 00:25:11;;;;;;;;;;;8.60;99.90;9.00;99276.00;;;;347728;27;95841;-85
2022/03/04 00:25:23;;;;;;;;;;;8.60;99.90;9.10;99275.00;;;;347329;27;91972;-85
2022/03/04 00:25:35;;;;;;;;;;;8.60;99.90;9.10;99277.00;;;;347234;28;93194;-85
2022/03/04 00:25:47;;;;;;;;;;;8.60;99.90;9.10;99267.00;;;;347095;28;91147;-85
2022/03/04 00:25:58;;;;;;;;;;;8.60;99.90;9.00;99268.00;;;;347347;28;93305;-84
2022/03/04 00:26:10;;;;;;;;;;;8.60;99.90;9.00;99277.00;;;;346828;28;92086;-85
2022/03/04 00:26:22;;;;;;;;;;;8.60;99.90;8.90;99271.00;;;;347161;27;94165;-84
2022/03/04 00:26:34;;;;;;;;;;;8.60;99.90;9.10;99277.00;;;;345619;28;91926;-85
2022/03/04 00:26:46;;;;;;;;;;;8.70;99.90;9.20;99266.00;;;;345826;28;93104;-85
2022/03/04 00:26:58;;;;;;;;;;;8.60;99.90;9.20;99275.00;;;;345445;28;91999;-84
2022/03/04 00:27:09;;;;;;;;;;;8.60;99.90;9.10;99280.00;;;;345937;28;93737;-85
2022/03/04 00:27:21;;;;;;;;;;;8.70;99.90;9.20;99265.00;;;;345312;28;91961;-85
2022/03/04 00:27:33;;;;;;;;;;;8.70;99.90;9.20;99270.00;;;;345746;28;93445;-85
2022/03/04 00:27:45;;;;;;;;;;;8.70;99.90;9.00;99275.00;;;;345598;28;91234;-85
2022/03/04 00:27:57;;;;;;;;;;;8.60;99.90;9.00;99273.00;;;;345948;28;93186;-85
2022/03/04 00:28:09;;;;;;;;;;;8.60;99.90;8.90;99270.00;;;;348622;27;91847;-84
2022/03/04 00:28:21;;;;;;;;;;;8.60;99.90;8.80;99267.00;;;;346959;28;94022;-85
2022/03/04 00:28:33;;;;;;;;;;;8.60;99.90;8.80;99268.00;;;;347046;28;91849;-84
2022/03/04 00:28:45;;;;;;;;;;;8.60;99.90;8.90;99275.00;;;;347277;28;94721;-85
2022/03/04 00:28:57;;;;;;;;;;;8.60;99.90;9.00;99267.00;;;;346915;27;91967;-85
2022/03/04 00:29:09;;;;;;;;;;;8.60;99.90;9.00;99272.00;;;;347298;27;96197;-85
2022/03/04 00:29:21;;;;;;;;;;;8.60;99.90;8.90;99269.00;;;;346997;28;91230;-85
2022/03/04 00:29:32;;;;;;;;;;;8.50;99.90;8.90;99271.00;;;;347220;28;94671;-85
2022/03/04 00:29:44;;;;;;;;;;;8.50;99.90;9.00;99271.00;;;;345637;28;91238;-84
2022/03/04 00:29:56;;;;;;;;;;;8.50;99.90;8.90;99275.00;;;;346931;28;92361;-85
2022/03/04 00:30:08;;;;;;;;;;;8.50;99.90;9.00;99273.00;;;;346972;28;91162;-85
2022/03/04 00:30:20;;;;;;;;;;;8.60;99.90;9.10;99267.00;;;;345732;28;96664;-85
2022/03/04 00:30:32;;;;;;;;;;;8.50;99.90;9.20;99268.00;;;;345613;28;91972;-85
2022/03/04 00:30:44;;;;;;;;;;;8.50;99.90;9.10;99260.00;;;;345932;28;93707;-85
2022/03/04 00:30:55;;;;;;;;;;;8.50;99.90;9.10;99270.00;;;;344232;28;91870;-85
2022/03/04 00:31:07;;;;;;;;;;;8.50;99.90;9.00;99277.00;;;;344558;28;93338;-85
2022/03/04 00:31:19;;;;;;;;;;;8.50;99.90;8.80;99268.00;;;;345053;28;91274;-85
2022/03/04 00:31:31;;;;;;;;;;;8.50;99.90;8.80;99270.00;;;;345843;28;95880;-85
2022/03/04 00:31:44;;;;;;;;;;;8.50;99.90;8.70;99271.00;;;;346643;28;91431;-85
2022/03/04 00:31:55;;;;;;;;;;;8.50;99.90;8.70;99269.00;;;;347273;28;93119;-85
2022/03/04 00:32:07;;;;;;;;;;;8.40;99.90;8.70;99278.00;;;;348358;27;91867;-84
2022/03/04 00:32:19;;;;;;;;;;;8.40;99.90;8.60;99271.00;;;;347107;28;93952;-85
2022/03/04 00:32:31;;;;;;;;;;;8.50;99.90;8.80;99267.00;;;;347074;28;91910;-84
2022/03/04 00:32:43;;;;;;;;;;;8.40;99.90;8.90;99268.00;;;;345901;28;93752;-85
2022/03/04 00:32:54;;;;;;;;;;;8.40;99.90;9.00;99272.00;;;;345581;28;91899;-84
2022/03/04 00:33:08;;;;;;;;;;;8.50;99.90;8.90;99270.00;;;;347140;28;93669;-85
2022/03/04 00:33:20;;;;;;;;;;;8.40;99.90;9.00;99276.00;;;;346981;28;92077;-84
2022/03/04 00:33:32;;;;;;;;;;;8.40;99.90;9.00;99277.00;;;;347363;28;92664;-85
2022/03/04 00:33:44;;;;;;;;;;;8.50;99.90;8.80;99277.00;;;;345682;28;90532;-85
2022/03/04 00:33:55;;;;;;;;;;;8.40;99.90;8.90;99266.00;;;;345944;28;92842;-84
2022/03/04 00:34:07;;;;;;;;;;;8.40;99.90;8.80;99274.00;;;;347022;27;91951;-85
2022/03/04 00:34:19;;;;;;;;;;;8.40;99.90;8.90;99280.00;;;;348180;27;93821;-85
2022/03/04 00:34:31;;;;;;;;;;;8.40;99.90;8.90;99271.00;;;;347007;28;91943;-84
2022/03/04 00:34:43;;;;;;;;;;;8.40;99.90;8.80;99262.00;;;;348186;27;93859;-85
2022/03/04 00:34:54;;;;;;;;;;;8.40;99.90;8.90;99270.00;;;;347015;28;91927;-84
2022/03/04 00:35:07;;;;;;;;;;;8.40;99.90;8.80;99271.00;;;;347272;27;91478;-85
2022/03/04 00:35:18;;;;;;;;;;;8.40;99.90;8.70;99269.00;;;;344197;28;92941;-85
2022/03/04 00:35:30;;;;;;;;;;;8.40;99.90;8.80;99271.00;;;;343107;28;92658;-85
2022/03/04 00:35:42;;;;;;;;;;;8.40;99.90;8.80;99267.00;;;;343985;28;91355;-85
2022/03/04 00:35:54;;;;;;;;;;;8.40;99.90;8.80;99261.00;;;;345952;28;92734;-84
2022/03/04 00:36:06;;;;;;;;;;;8.40;99.90;8.70;99270.00;;;;345559;28;91981;-85
2022/03/04 00:36:22;;;;;;;;;;;8.40;99.90;8.80;99267.00;;;;345756;28;94911;-85
2022/03/04 00:36:35;;;;;;;;;;;8.40;99.90;8.60;99274.00;;;;345667;28;91910;-84
2022/03/04 00:36:49;;;;;;;;;;;8.40;99.90;8.50;99270.00;;;;344434;28;94908;-85
2022/03/04 00:37:01;;;;;;;;;;;8.30;99.90;8.60;99274.00;;;;344258;28;91883;-85
2022/03/04 00:37:12;;;;;;;;;;;8.30;99.90;8.70;99268.00;;;;345050;28;95098;-85
2022/03/04 00:37:24;;;;;;;;;;;8.30;99.90;8.70;99268.00;;;;345470;28;92082;-85
2022/03/04 00:37:36;;;;;;;;;;;8.30;99.90;8.70;99271.00;;;;344354;28;94932;-85
2022/03/04 00:37:48;;;;;;;;;;;8.30;99.90;8.60;99265.00;;;;345490;28;91369;-85
2022/03/04 00:37:59;;;;;;;;;;;8.30;99.90;8.60;99270.00;;;;345627;28;95328;-84
2022/03/04 00:38:11;;;;;;;;;;;8.30;99.90;8.60;99260.00;;;;345056;28;91849;-85
2022/03/04 00:38:23;;;;;;;;;;;8.30;99.90;8.60;99270.00;;;;344419;28;93812;-85
2022/03/04 00:38:35;;;;;;;;;;;8.30;99.90;8.70;99266.00;;;;344170;28;92003;-85
2022/03/04 00:38:49;;;;;;;;;;;8.20;99.90;8.60;99273.00;;;;344438;28;95007;-85
2022/03/04 00:39:01;;;;;;;;;;;8.20;99.90;8.70;99264.00;;;;344157;28;91110;-84
2022/03/04 00:39:13;;;;;;;;;;;8.20;99.90;8.80;99262.00;;;;345848;28;96542;-85
2022/03/04 00:39:24;;;;;;;;;;;8.20;99.90;8.80;99266.00;;;;347013;28;92008;-85
2022/03/04 00:39:36;;;;;;;;;;;8.20;99.90;8.70;99270.00;;;;348666;27;93619;-85
2022/03/04 00:39:48;;;;;;;;;;;8.20;99.90;8.70;99268.00;;;;348457;27;90412;-84
2022/03/04 00:40:00;;;;;;;;;;;8.20;99.90;8.70;99269.00;;;;347216;28;92745;-85
2022/03/04 00:40:14;;;;;;;;;;;8.20;99.90;8.60;99270.00;;;;346177;28;92135;-85
2022/03/04 00:40:25;;;;;;;;;;;8.20;99.90;8.50;99266.00;;;;345680;28;93520;-85
2022/03/04 00:40:37;;;;;;;;;;;8.20;99.90;8.50;99276.00;;;;348377;27;91971;-85
2022/03/04 00:40:49;;;;;;;;;;;8.20;99.90;8.50;99273.00;;;;345896;28;93397;-85
2022/03/04 00:41:01;;;;;;;;;;;8.20;99.90;8.50;99271.00;;;;345585;28;92072;-85
2022/03/04 00:41:13;;;;;;;;;;;8.20;99.90;8.50;99258.00;;;;346287;28;93842;-85
2022/03/04 00:41:25;;;;;;;;;;;8.20;99.90;8.50;99259.00;;;;346982;28;92153;-85
2022/03/04 00:41:36;;;;;;;;;;;8.20;99.90;8.40;99274.00;;;;347173;27;93929;-85
2022/03/04 00:41:48;;;;;;;;;;;8.20;99.90;8.40;99270.00;;;;347040;28;91319;-85
2022/03/04 00:42:00;;;;;;;;;;;8.10;99.90;8.50;99271.00;;;;345871;28;93283;-85
2022/03/04 00:42:12;;;;;;;;;;;8.10;99.90;8.30;99269.00;;;;345691;28;91866;-85
2022/03/04 00:42:24;;;;;;;;;;;8.10;99.90;8.30;99270.00;;;;344102;28;93662;-85
2022/03/04 00:42:36;;;;;;;;;;;8.10;99.90;8.30;99272.00;;;;345664;28;91084;-85
2022/03/04 00:42:48;;;;;;;;;;;8.10;99.90;8.40;99270.00;;;;345856;28;93770;-85
2022/03/04 00:43:00;;;;;;;;;;;8.10;99.90;8.30;99267.00;;;;345542;28;91974;-84
2022/03/04 00:43:11;;;;;;;;;;;8.10;99.90;8.30;99271.00;;;;346473;28;93469;-85
2022/03/04 00:43:23;;;;;;;;;;;8.10;99.90;8.40;99267.00;;;;346836;28;92050;-85
2022/03/04 00:43:35;;;;;;;;;;;8.10;99.90;8.50;99266.00;;;;347154;28;93156;-84
2022/03/04 00:43:47;;;;;;;;;;;8.10;99.90;8.50;99271.00;;;;347027;28;91286;-85
2022/03/04 00:43:59;;;;;;;;;;;8.10;99.90;8.50;99269.00;;;;347268;28;93148;-85
2022/03/04 00:44:11;;;;;;;;;;;8.10;99.90;8.50;99264.00;;;;346957;28;91858;-85
2022/03/04 00:44:23;;;;;;;;;;;8.10;99.90;8.40;99275.00;;;;348634;27;91799;-85
2022/03/04 00:44:35;;;;;;;;;;;8.00;99.90;8.50;99280.00;;;;348896;27;91131;-85
2022/03/04 00:44:46;;;;;;;;;;;8.00;99.90;8.50;99269.00;;;;347870;27;96577;-85
2022/03/04 00:44:58;;;;;;;;;;;8.00;99.90;8.50;99268.00;;;;348367;27;91146;-85
2022/03/04 00:45:10;;;;;;;;;;;8.00;99.90;8.50;99265.00;;;;348660;27;93493;-85
2022/03/04 00:45:22;;;;;;;;;;;8.00;99.90;8.60;99275.00;;;;349782;27;91934;-85
2022/03/04 00:45:34;;;;;;;;;;;8.00;99.90;8.60;99268.00;;;;350117;27;93713;-85
2022/03/04 00:45:45;;;;;;;;;;;8.00;99.90;8.50;99278.00;;;;348402;27;90458;-85
2022/03/04 00:45:57;;;;;;;;;;;8.00;99.90;8.50;99268.00;;;;348732;27;93051;-84
2022/03/04 00:46:09;;;;;;;;;;;8.00;99.90;8.40;99268.00;;;;346661;28;91922;-84
2022/03/04 00:46:21;;;;;;;;;;;8.00;99.90;8.40;99272.00;;;;346952;28;93480;-85
2022/03/04 00:46:34;;;;;;;;;;;8.00;99.90;8.40;99270.00;;;;345623;28;92000;-85
2022/03/04 00:46:46;;;;;;;;;;;8.00;99.90;8.40;99268.00;;;;344569;28;92428;-85
2022/03/04 00:46:58;;;;;;;;;;;8.00;99.90;8.40;99267.00;;;;345569;28;91993;-84
2022/03/04 00:47:10;;;;;;;;;;;8.00;99.90;8.30;99278.00;;;;345873;28;93213;-84
2022/03/04 00:47:21;;;;;;;;;;;8.00;99.90;8.40;99280.00;;;;345588;28;92005;-85
2022/03/04 00:47:33;;;;;;;;;;;8.00;99.90;8.30;99269.00;;;;345853;28;93425;-85
2022/03/04 00:47:45;;;;;;;;;;;8.00;99.90;8.30;99271.00;;;;345511;28;91386;-85
2022/03/04 00:47:57;;;;;;;;;;;7.90;99.90;8.40;99269.00;;;;347307;28;93029;-85
2022/03/04 00:48:08;;;;;;;;;;;7.90;99.90;8.30;99266.00;;;;346880;28;91908;-84
2022/03/04 00:48:20;;;;;;;;;;;8.00;99.90;8.20;99267.00;;;;347007;28;93519;-84
2022/03/04 00:48:32;;;;;;;;;;;7.90;99.90;8.20;99272.00;;;;345597;28;92092;-85
2022/03/04 00:48:45;;;;;;;;;;;7.90;99.90;8.40;99263.00;;;;345882;28;93630;-84
2022/03/04 00:48:57;;;;;;;;;;;7.90;99.90;8.50;99270.00;;;;345621;28;92011;-84
2022/03/04 00:49:08;;;;;;;;;;;8.00;99.90;8.60;99274.00;;;;345820;28;93812;-85
2022/03/04 00:49:20;;;;;;;;;;;7.90;99.90;8.60;99272.00;;;;346775;28;92168;-85
2022/03/04 00:49:32;;;;;;;;;;;7.90;99.90;8.60;99276.00;;;;345809;28;95053;-85
2022/03/04 00:49:44;;;;;;;;;;;8.00;99.90;8.60;99275.00;;;;345430;28;91414;-85
2022/03/04 00:49:56;;;;;;;;;;;8.00;99.90;8.50;99274.00;;;;347118;28;95059;-85
2022/03/04 00:50:08;;;;;;;;;;;8.00;99.90;8.60;99276.00;;;;346717;28;91297;-85
2022/03/04 00:50:19;;;;;;;;;;;8.00;99.90;8.60;99277.00;;;;347071;27;96702;-85
2022/03/04 00:50:31;;;;;;;;;;;8.00;99.90;8.50;99276.00;;;;346648;28;92397;-85
2022/03/04 00:50:43;;;;;;;;;;;7.90;99.90;8.30;99270.00;;;;348705;27;93181;-85
2022/03/04 00:50:55;;;;;;;;;;;7.90;99.90;8.30;99275.00;;;;348289;27;91957;-85
2022/03/04 00:51:07;;;;;;;;;;;7.90;99.90;8.30;99275.00;;;;350001;27;95257;-85
2022/03/04 00:51:18;;;;;;;;;;;7.90;99.90;8.40;99272.00;;;;349860;27;91836;-84
2022/03/04 00:51:30;;;;;;;;;;;7.90;99.90;8.40;99266.00;;;;345729;28;96797;-84
2022/03/04 00:51:42;;;;;;;;;;;7.90;99.90;8.30;99278.00;;;;345587;28;91255;-85
2022/03/04 00:51:54;;;;;;;;;;;7.90;99.90;8.20;99272.00;;;;345837;28;95152;-84
2022/03/04 00:52:06;;;;;;;;;;;7.90;99.90;8.20;99271.00;;;;343948;28;91946;-85
2022/03/04 00:52:17;;;;;;;;;;;7.90;99.90;8.20;99270.00;;;;346569;28;93780;-85
2022/03/04 00:52:29;;;;;;;;;;;7.90;99.90;8.20;99278.00;;;;344142;28;92008;-85
2022/03/04 00:52:41;;;;;;;;;;;7.90;99.90;8.20;99272.00;;;;345189;28;93980;-84
2022/03/04 00:52:54;;;;;;;;;;;7.90;99.90;8.30;99277.00;;;;348431;27;91864;-85
2022/03/04 00:53:06;;;;;;;;;;;7.90;99.90;8.20;99274.00;;;;348578;27;93858;-85
2022/03/04 00:53:18;;;;;;;;;;;7.90;99.90;8.20;99280.00;;;;347029;28;91830;-85
2022/03/04 00:53:30;;;;;;;;;;;7.80;99.90;8.20;99269.00;;;;347250;28;93426;-84
2022/03/04 00:53:42;;;;;;;;;;;7.80;99.90;8.20;99276.00;;;;346839;28;91388;-85
2022/03/04 00:53:53;;;;;;;;;;;7.80;99.90;8.20;99274.00;;;;347342;28;92860;-84
2022/03/04 00:54:05;;;;;;;;;;;7.80;99.90;8.30;99270.00;;;;343977;28;92415;-85
2022/03/04 00:54:17;;;;;;;;;;;7.80;99.90;8.30;99275.00;;;;344484;28;93389;-84
2022/03/04 00:54:29;;;;;;;;;;;7.80;99.90;8.30;99278.00;;;;345493;28;92018;-85
2022/03/04 00:54:41;;;;;;;;;;;7.80;99.90;8.30;99276.00;;;;345865;28;93117;-85
2022/03/04 00:54:52;;;;;;;;;;;7.80;99.90;8.30;99273.00;;;;347042;28;91855;-85
2022/03/04 00:55:04;;;;;;;;;;;7.80;99.90;8.40;99273.00;;;;348369;27;93706;-85
2022/03/04 00:55:16;;;;;;;;;;;7.80;99.90;8.30;99276.00;;;;348148;27;92008;-85
2022/03/04 00:55:28;;;;;;;;;;;7.80;99.90;8.30;99280.00;;;;348439;27;96666;-85
2022/03/04 00:55:40;;;;;;;;;;;7.80;99.90;8.30;99269.00;;;;346741;28;91352;-85
2022/03/04 00:55:51;;;;;;;;;;;7.80;99.90;8.20;99272.00;;;;345827;28;93396;-85
2022/03/04 00:56:03;;;;;;;;;;;7.80;99.90;8.20;99272.00;;;;348446;27;92002;-84
2022/03/04 00:56:15;;;;;;;;;;;7.80;99.90;8.20;99281.00;;;;347299;28;93183;-85
2022/03/04 00:56:27;;;;;;;;;;;7.80;99.90;8.20;99276.00;;;;347068;28;91906;-84
2022/03/04 00:56:39;;;;;;;;;;;7.80;99.90;8.20;99274.00;;;;344413;28;96090;-85
2022/03/04 00:56:50;;;;;;;;;;;7.80;99.90;8.20;99276.00;;;;347103;28;91915;-85
2022/03/04 00:57:02;;;;;;;;;;;7.80;99.90;8.20;99273.00;;;;347032;28;93136;-85
2022/03/04 00:57:14;;;;;;;;;;;7.80;99.90;8.20;99277.00;;;;347106;28;91118;-85
2022/03/04 00:57:26;;;;;;;;;;;7.80;99.90;8.20;99277.00;;;;347206;28;94008;-85
2022/03/04 00:57:38;;;;;;;;;;;7.80;99.90;8.20;99277.00;;;;346646;28;91335;-85
2022/03/04 00:57:50;;;;;;;;;;;7.80;99.90;8.10;99274.00;;;;347246;28;92803;-85
2022/03/04 00:58:01;;;;;;;;;;;7.70;99.90;8.20;99275.00;;;;346950;28;91909;-85
2022/03/04 00:58:13;;;;;;;;;;;7.80;99.90;8.20;99275.00;;;;346716;28;93809;-85
2022/03/04 00:58:25;;;;;;;;;;;7.70;99.90;8.20;99281.00;;;;345410;28;92050;-85
2022/03/04 00:58:37;;;;;;;;;;;7.80;99.90;8.20;99276.00;;;;346265;27;93863;-85
2022/03/04 00:58:49;;;;;;;;;;;7.70;99.90;8.30;99282.00;;;;348464;27;91935;-85
2022/03/04 00:59:01;;;;;;;;;;;7.70;99.90;8.40;99279.00;;;;347089;28;93876;-85
2022/03/04 00:59:13;;;;;;;;;;;7.80;99.90;8.30;99276.00;;;;345742;28;91041;-85
2022/03/04 00:59:24;;;;;;;;;;;7.80;99.90;8.20;99273.00;;;;347215;28;93784;-85
2022/03/04 00:59:37;;;;;;;;;;;7.80;99.90;8.30;99270.00;;;;345591;28;91204;-85
2022/03/04 00:59:48;;;;;;;;;;;7.80;99.90;8.40;99265.00;;;;345883;28;92741;-85
2022/03/04 01:00:00;;;;;;;;;;;7.80;99.90;8.50;99274.00;;;;345549;28;92186;-85
2022/03/04 01:00:13;;;;;;;;;;;7.80;99.90;8.30;99275.00;;;;347298;28;93407;-85
2022/03/04 01:00:25;;;;;;;;;;;7.80;99.90;8.20;99272.00;;;;346735;28;91935;-84
2022/03/04 01:00:36;;;;;;;;;;;7.80;99.90;8.30;99273.00;;;;347006;28;93872;-85
2022/03/04 01:00:48;;;;;;;;;;;7.80;99.90;8.40;99277.00;;;;347002;28;91918;-84
2022/03/04 01:01:01;;;;;;;;;;;7.80;99.90;8.40;99279.00;;;;348508;27;93874;-85